Time;durP1;ratioP1;P1;durP2;ratioP2;P2;SDS_P1;SDS_P2;PMS_P1;PMS_P2;Temp;Humidity;BMP_temperature;BMP_pressure;BME280_temperature;BME280_humidity;BME280_pressure;Samples;Min_cycle;Max_cycle;Signal;HPM_P1;HPM_P2
2023/02/10 00:01:26;;;;;;;36.47;19.60;;;;;;;-1.54;62.79;98439.25;5014727;28;20512;-76
2023/02/10 00:03:54;;;;;;;36.15;18.95;;;;;;;-1.55;64.28;98445.28;5014889;28;20052;-76
2023/02/10 00:06:23;;;;;;;31.17;17.50;;;;;;;-1.53;65.43;98447.75;5015027;28;20061;-76
2023/02/10 00:08:54;;;;;;;42.75;20.70;;;;;;;-1.57;63.54;98446.25;5014724;28;20181;-77
2023/02/10 00:11:56;;;;;;;32.67;18.95;;;;;;;-1.64;62.83;98455.03;5015222;28;20060;-76
2023/02/10 00:14:12;;;;;;;32.13;18.20;;;;;;;-1.66;63.43;98447.44;5015004;28;20490;-76
2023/02/10 00:16:39;;;;;;;40.88;21.25;;;;;;;-1.72;62.43;98456.16;5014834;28;20085;-76
2023/02/10 00:19:07;;;;;;;49.60;24.08;;;;;;;-1.73;62.83;98459.63;5014183;28;20050;-76
2023/02/10 00:21:35;;;;;;;49.85;24.10;;;;;;;-1.69;62.52;98457.75;5014636;28;20046;-76
2023/02/10 00:24:04;;;;;;;41.08;21.80;;;;;;;-1.75;62.66;98452.88;5014751;28;20069;-76
2023/02/10 00:26:32;;;;;;;40.50;21.95;;;;;;;-1.79;62.48;98452.19;5014635;28;20046;-76
2023/02/10 00:29:00;;;;;;;38.22;21.05;;;;;;;-1.83;62.69;98450.63;5013850;28;20129;-76
2023/02/10 00:31:27;;;;;;;35.15;20.08;;;;;;;-1.87;63.66;98444.78;5014214;28;20046;-76
2023/02/10 00:33:55;;;;;;;37.80;20.52;;;;;;;-1.87;63.47;98454.19;5015141;28;20534;-77
2023/02/10 00:36:24;;;;;;;37.30;19.00;;;;;;;-1.89;63.47;98451.69;5016548;28;20431;-76
2023/02/10 00:38:52;;;;;;;45.30;23.50;;;;;;;-1.88;64.45;98460.19;5034364;28;20037;-77
2023/02/10 00:41:22;;;;;;;50.63;27.77;;;;;;;-1.84;67.08;98451.50;5033640;28;20077;-75
2023/02/10 00:43:51;;;;;;;50.85;24.48;;;;;;;-1.82;64.19;98447.16;5033153;28;20049;-76
2023/02/10 00:46:20;;;;;;;44.45;23.92;;;;;;;-1.83;65.09;98442.97;5032270;28;20060;-76
2023/02/10 00:48:48;;;;;;;40.42;21.38;;;;;;;-1.77;66.29;98450.41;5015104;28;20050;-76
2023/02/10 00:51:17;;;;;;;38.72;20.88;;;;;;;-1.76;66.05;98451.22;5013980;28;20064;-76
2023/02/10 00:53:45;;;;;;;37.67;19.83;;;;;;;-1.81;65.19;98453.97;5014028;28;20141;-76
2023/02/10 00:56:12;;;;;;;34.10;19.17;;;;;;;-1.80;65.95;98450.50;5014116;28;20052;-76
2023/02/10 00:58:41;;;;;;;36.60;19.65;;;;;;;-1.85;64.99;98462.66;5013285;28;20488;-76
2023/02/10 01:01:09;;;;;;;32.58;20.02;;;;;;;-1.94;64.12;98453.59;5013932;28;20064;-76
2023/02/10 01:03:36;;;;;;;35.38;21.60;;;;;;;-2.00;64.46;98453.81;5013661;28;20049;-77
2023/02/10 01:06:05;;;;;;;38.13;20.27;;;;;;;-2.02;65.09;98459.91;5013775;28;20046;-76
2023/02/10 01:08:34;;;;;;;38.67;20.67;;;;;;;-2.00;66.77;98469.16;5013015;28;20062;-75
2023/02/10 01:11:03;;;;;;;35.67;19.80;;;;;;;-1.95;67.55;98466.44;5013777;28;20133;-77
2023/02/10 01:13:33;;;;;;;37.58;20.08;;;;;;;-1.90;66.35;98469.66;5014071;28;20050;-76
2023/02/10 01:16:05;;;;;;;36.28;19.42;;;;;;;-1.91;64.77;98471.38;5014198;28;20095;-76
2023/02/10 01:18:33;;;;;;;35.58;19.25;;;;;;;-1.91;65.90;98473.94;5013072;28;20435;-76
2023/02/10 01:21:07;;;;;;;34.53;18.27;;;;;;;-1.91;68.22;98473.09;5013493;28;20531;-76
2023/02/10 01:23:34;;;;;;;36.85;19.58;;;;;;;-1.88;67.18;98478.09;5014333;28;20050;-76
2023/02/10 01:26:02;;;;;;;44.60;20.67;;;;;;;-1.87;66.07;98474.66;5014323;28;20053;-77
2023/02/10 01:28:30;;;;;;;38.55;19.20;;;;;;;-1.93;65.29;98472.31;5012893;28;20057;-76
2023/02/10 01:30:58;;;;;;;36.25;18.45;;;;;;;-1.96;65.45;98475.00;5013540;28;20050;-76
2023/02/10 01:33:27;;;;;;;35.50;19.77;;;;;;;-2.01;66.44;98461.53;5034338;22;20142;-77
2023/02/10 01:35:54;;;;;;;35.45;19.70;;;;;;;-2.11;65.55;98469.56;5013320;28;20049;-78
2023/02/10 01:38:22;;;;;;;37.95;20.23;;;;;;;-2.18;65.53;98465.56;5012565;28;20046;-77
2023/02/10 01:40:50;;;;;;;35.50;19.70;;;;;;;-2.19;64.65;98463.91;5013037;28;20054;-77
2023/02/10 01:43:18;;;;;;;34.92;18.63;;;;;;;-2.19;66.29;98469.00;5013356;28;20075;-77
2023/02/10 01:45:46;;;;;;;39.35;21.08;;;;;;;-2.15;67.51;98467.19;5013464;28;20056;-77
2023/02/10 01:48:15;;;;;;;37.42;19.35;;;;;;;-2.12;66.15;98470.47;5012582;28;20054;-77
2023/02/10 01:50:51;;;;;;;37.10;19.92;;;;;;;-2.13;65.98;98476.47;5013495;28;20069;-77
2023/02/10 01:53:22;;;;;;;38.33;19.75;;;;;;;-2.11;66.51;98467.00;5013231;28;20057;-78
2023/02/10 01:55:53;;;;;;;34.70;17.75;;;;;;;-2.09;64.61;98465.22;5013664;28;20045;-77
2023/02/10 01:58:24;;;;;;;35.65;20.40;;;;;;;-2.05;67.55;98470.25;5012419;28;20061;-77
2023/02/10 02:00:51;;;;;;;37.45;19.98;;;;;;;-2.01;67.58;98459.84;5012728;28;20046;-77
2023/02/10 02:03:19;;;;;;;37.03;20.42;;;;;;;-2.04;66.33;98457.38;5012801;28;20500;-77
2023/02/10 02:05:48;;;;;;;40.78;22.15;;;;;;;-2.12;64.97;98462.81;5012773;28;20596;-77
2023/02/10 02:08:19;;;;;;;35.78;18.63;;;;;;;-2.20;64.59;98469.91;5012234;28;20112;-77
2023/02/10 02:11:01;;;;;;;35.47;19.23;;;;;;;-2.29;63.90;98462.59;5012434;28;20500;-78
2023/02/10 02:13:39;;;;;;;35.30;19.03;;;;;;;-2.34;65.07;98460.19;5013469;28;20054;-77
2023/02/10 02:16:19;;;;;;;36.38;18.55;;;;;;;-2.30;66.97;98464.31;5017456;28;20050;-77
2023/02/10 02:18:52;;;;;;;33.80;19.58;;;;;;;-2.24;66.49;98464.97;5016384;28;20065;-77
2023/02/10 02:21:51;;;;;;;31.70;17.77;;;;;;;-2.26;67.90;98466.75;5016956;28;20052;-77
2023/02/10 02:24:32;;;;;;;34.75;20.35;;;;;;;-2.23;69.01;98457.25;5016792;28;20056;-77
2023/02/10 02:27:20;;;;;;;34.90;19.33;;;;;;;-2.25;68.99;98461.59;5014855;28;20054;-77
2023/02/10 02:30:14;;;;;;;38.13;20.02;;;;;;;-2.31;66.13;98459.25;5014008;28;20424;-77
2023/02/10 02:32:49;;;;;;;36.40;18.85;;;;;;;-2.33;67.47;98455.91;5014784;28;20049;-77
2023/02/10 02:35:20;;;;;;;37.80;20.58;;;;;;;-2.32;66.94;98457.56;5010318;28;20319;-77
2023/02/10 02:37:49;;;;;;;35.13;18.47;;;;;;;-2.31;67.04;98466.91;5020576;28;20602;-79
2023/02/10 02:40:18;;;;;;;33.50;19.85;;;;;;;-2.36;66.00;98471.34;5037134;28;20049;-77
2023/02/10 02:42:45;;;;;;;33.72;19.92;;;;;;;-2.38;66.24;98468.88;5035884;28;20058;-78
2023/02/10 02:45:17;;;;;;;34.38;17.63;;;;;;;-2.35;65.92;98470.47;5021352;28;20056;-78
2023/02/10 02:48:00;;;;;;;33.80;18.00;;;;;;;-2.33;67.21;98478.91;5017617;28;20057;-77
2023/02/10 02:50:34;;;;;;;34.08;17.83;;;;;;;-2.32;67.24;98488.25;5016357;28;20484;-77
2023/02/10 02:53:14;;;;;;;34.65;20.08;;;;;;;-2.30;66.76;98486.47;5016468;28;20053;-78
2023/02/10 02:55:50;;;;;;;34.45;18.83;;;;;;;-2.32;64.64;98489.09;5016586;28;20061;-77
2023/02/10 02:58:28;;;;;;;33.65;18.58;;;;;;;-2.39;64.69;98492.75;5016127;28;20054;-77
2023/02/10 03:01:00;;;;;;;36.58;19.60;;;;;;;-2.41;66.17;98494.50;5016271;28;20050;-77
2023/02/10 03:03:29;;;;;;;36.80;19.27;;;;;;;-2.37;67.45;98497.81;5016123;28;20060;-77
2023/02/10 03:05:59;;;;;;;38.47;20.02;;;;;;;-2.34;68.31;98505.34;5015775;28;20054;-78
2023/02/10 03:08:27;;;;;;;32.50;18.63;;;;;;;-2.36;66.98;98497.75;5015635;28;20058;-77
2023/02/10 03:10:55;;;;;;;33.63;19.25;;;;;;;-2.33;66.88;98505.31;5016301;28;20419;-77
2023/02/10 03:13:23;;;;;;;35.50;19.90;;;;;;;-2.30;67.20;98502.66;5016123;28;20464;-77
2023/02/10 03:15:50;;;;;;;31.33;17.60;;;;;;;-2.27;67.05;98504.28;5015805;28;20483;-77
2023/02/10 03:18:18;;;;;;;34.38;18.42;;;;;;;-2.21;67.52;98504.03;5015201;28;20153;-77
2023/02/10 03:20:47;;;;;;;35.08;19.42;;;;;;;-2.12;67.77;98510.53;5015732;28;20054;-77
2023/02/10 03:23:15;;;;;;;32.78;18.50;;;;;;;-2.08;67.00;98507.81;5015972;28;20041;-77
2023/02/10 03:25:45;;;;;;;33.40;18.67;;;;;;;-2.16;65.66;98514.94;5015957;28;20064;-77
2023/02/10 03:28:13;;;;;;;35.33;18.55;;;;;;;-2.19;67.19;98517.59;5015122;28;20495;-77
2023/02/10 03:30:46;;;;;;;32.85;18.52;;;;;;;-2.19;67.37;98520.13;5015586;28;20428;-77
2023/02/10 03:33:13;;;;;;;;;;;;;;;-2.19;67.32;98517.59;5015651;28;20492;-77
2023/02/10 03:35:43;;;;;;;32.78;18.00;;;;;;;-2.26;66.44;98508.47;5015557;28;19921;-77
2023/02/10 03:38:12;;;;;;;31.20;17.75;;;;;;;-2.36;65.16;98512.25;5014904;28;20148;-77
2023/02/10 03:40:40;;;;;;;36.60;19.25;;;;;;;-2.51;64.48;98509.34;5015558;28;20080;-77
2023/02/10 03:43:07;;;;;;;34.72;19.88;;;;;;;-2.62;64.04;98505.50;5015230;28;20082;-77
2023/02/10 03:45:35;;;;;;;33.53;17.70;;;;;;;-2.66;66.23;98512.44;5015262;28;20065;-77
2023/02/10 03:48:03;;;;;;;33.15;18.05;;;;;;;-2.62;66.84;98514.00;5014932;28;20062;-78
2023/02/10 03:50:30;;;;;;;37.58;18.38;;;;;;;-2.56;66.47;98520.59;5015485;28;20097;-77
2023/02/10 03:52:58;;;;;;;32.97;18.20;;;;;;;-2.55;66.66;98520.56;5014830;28;20056;-77
2023/02/10 03:55:27;;;;;;;34.00;17.48;;;;;;;-2.51;66.39;98518.75;5014901;28;20056;-77
2023/02/10 03:57:55;;;;;;;35.97;19.20;;;;;;;-2.54;65.14;98517.09;5014262;28;20400;-77
2023/02/10 04:00:23;;;;;;;34.78;18.60;;;;;;;-2.55;67.07;98523.13;5019785;28;20040;-78
2023/02/10 04:02:50;;;;;;;35.72;19.08;;;;;;;-2.54;67.56;98517.09;5033753;28;20105;-78
2023/02/10 04:05:18;;;;;;;38.63;18.23;;;;;;;-2.58;65.97;98510.47;5029648;28;20156;-77
2023/02/10 04:07:45;;;;;;;33.42;17.63;;;;;;;-2.75;64.41;98507.66;5015659;28;20046;-77
2023/02/10 04:10:13;;;;;;;34.17;17.45;;;;;;;-2.91;64.05;98509.84;5015131;28;20058;-77
2023/02/10 04:12:42;;;;;;;35.85;18.33;;;;;;;-3.06;64.22;98512.91;5014689;28;20587;-77
2023/02/10 04:15:10;;;;;;;36.47;19.50;;;;;;;-3.18;64.04;98532.84;5015206;28;20049;-77
2023/02/10 04:17:37;;;;;;;38.88;20.17;;;;;;;-3.29;64.30;98523.88;5014771;28;20510;-77
2023/02/10 04:20:06;;;;;;;39.08;20.25;;;;;;;-3.37;64.65;98517.31;5027272;28;20053;-77
2023/02/10 04:22:33;;;;;;;38.95;20.70;;;;;;;-3.33;65.12;98526.50;5033892;28;20049;-78
2023/02/10 04:25:01;;;;;;;35.55;18.98;;;;;;;-3.25;65.14;98522.91;5029157;28;20046;-77
2023/02/10 04:27:28;;;;;;;40.58;20.30;;;;;;;-3.26;64.54;98529.69;5014549;28;20046;-78
2023/02/10 04:29:57;;;;;;;35.45;18.38;;;;;;;-3.28;64.73;98525.53;5013567;28;20050;-77
2023/02/10 04:32:25;;;;;;;37.25;18.95;;;;;;;-3.28;64.59;98522.97;5014437;28;20132;-77
2023/02/10 04:34:52;;;;;;;32.72;18.52;;;;;;;-3.29;64.89;98534.09;5014094;28;20053;-77
2023/02/10 04:37:20;;;;;;;34.88;19.75;;;;;;;-3.24;65.93;98524.56;5013467;28;20054;-77
2023/02/10 04:39:47;;;;;;;39.22;20.25;;;;;;;-3.14;65.90;98533.59;5013741;28;20141;-77
2023/02/10 04:42:15;;;;;;;38.40;20.88;;;;;;;-3.09;65.09;98529.16;5015850;28;20042;-77
2023/02/10 04:44:43;;;;;;;41.65;20.23;;;;;;;-3.16;64.19;98533.63;5015764;28;20052;-77
2023/02/10 04:47:12;;;;;;;38.58;18.80;;;;;;;-3.29;64.37;98532.34;5014766;28;20081;-77
2023/02/10 04:49:39;;;;;;;44.22;21.08;;;;;;;-3.39;64.25;98539.47;5013291;28;20420;-77
2023/02/10 04:52:07;;;;;;;40.80;19.35;;;;;;;-3.46;64.45;98537.16;5018369;28;20050;-78
2023/02/10 04:54:34;;;;;;;41.10;21.02;;;;;;;-3.55;64.73;98544.19;5022554;28;20056;-78
2023/02/10 04:57:02;;;;;;;38.15;20.50;;;;;;;-3.54;65.27;98545.06;5021539;28;20053;-78
2023/02/10 04:59:29;;;;;;;54.92;22.27;;;;;;;-3.53;65.36;98542.44;5013159;28;20054;-77
2023/02/10 05:01:57;;;;;;;44.95;21.33;;;;;;;-3.51;65.31;98544.94;5013441;28;20119;-77
2023/02/10 05:04:26;;;;;;;42.92;20.85;;;;;;;-3.54;65.34;98539.94;5014118;28;20050;-77
2023/02/10 05:06:57;;;;;;;42.67;21.92;;;;;;;-3.45;66.18;98543.94;5013555;28;20050;-77
2023/02/10 05:09:26;;;;;;;44.37;21.07;;;;;;;-3.37;66.86;98547.94;5013182;28;20137;-77
2023/02/10 05:11:54;;;;;;;39.67;20.35;;;;;;;-3.31;66.18;98555.38;5015107;28;20049;-77
2023/02/10 05:14:22;;;;;;;41.85;20.42;;;;;;;-3.34;65.58;98559.75;5013982;28;20045;-77
2023/02/10 05:16:49;;;;;;;41.10;21.08;;;;;;;-3.39;65.16;98559.91;5013989;28;20049;-77
2023/02/10 05:19:17;;;;;;;40.25;20.35;;;;;;;-3.42;65.41;98561.69;5012906;28;20405;-77
2023/02/10 05:21:46;;;;;;;40.17;20.48;;;;;;;-3.44;65.42;98556.63;5013437;28;20049;-78
2023/02/10 05:24:13;;;;;;;41.88;19.65;;;;;;;-3.49;65.13;98566.16;5013500;28;20042;-77
2023/02/10 05:26:41;;;;;;;44.38;21.67;;;;;;;-3.56;64.75;98565.50;5013641;28;20428;-77
2023/02/10 05:29:08;;;;;;;43.60;21.88;;;;;;;-3.62;65.11;98572.50;5013225;28;20065;-77
2023/02/10 05:31:36;;;;;;;51.33;22.20;;;;;;;-3.60;65.80;98578.38;5013543;28;20045;-77
2023/02/10 05:34:04;;;;;;;48.63;22.38;;;;;;;-3.58;65.45;98582.56;5013701;28;20052;-77
2023/02/10 05:36:31;;;;;;;41.63;21.70;;;;;;;-3.59;65.40;98580.88;5013336;28;20052;-77
2023/02/10 05:41:45;;;;;;;40.55;19.60;;;;;;;-3.59;64.79;98577.50;5013046;28;20527;-77
2023/02/10 05:44:13;;;;;;;44.33;21.75;;;;;;;-3.66;64.64;98579.41;5013937;28;20046;-77
2023/02/10 05:46:41;;;;;;;42.05;22.08;;;;;;;-3.70;65.02;98584.63;5013499;28;20136;-77
2023/02/10 05:49:10;;;;;;;40.67;21.45;;;;;;;-3.69;65.40;98581.22;5013330;28;20108;-77
2023/02/10 05:51:37;;;;;;;45.47;21.48;;;;;;;-3.67;65.12;98582.84;5017296;28;20054;-77
2023/02/10 05:54:07;;;;;;;41.50;20.45;;;;;;;-3.63;65.74;98586.13;5017423;28;20335;-77
2023/02/10 05:56:34;;;;;;;44.95;21.88;;;;;;;-3.60;65.12;98581.78;5017984;28;20052;-77
2023/02/10 05:59:02;;;;;;;37.58;20.90;;;;;;;-3.65;64.88;98587.88;5017506;28;20491;-76
2023/02/10 06:01:29;;;;;;;36.78;20.23;;;;;;;-3.71;65.19;98588.06;5017618;28;20054;-77
2023/02/10 06:03:57;;;;;;;45.90;21.15;;;;;;;-3.74;65.37;98594.06;5017248;28;20056;-77
2023/02/10 06:06:25;;;;;;;45.25;21.48;;;;;;;-3.71;66.11;98590.63;5017324;28;20049;-77
2023/02/10 06:08:52;;;;;;;40.65;21.40;;;;;;;-3.63;67.00;98588.66;5014114;28;20084;-77
2023/02/10 06:11:21;;;;;;;42.35;21.85;;;;;;;-3.60;65.67;98591.16;5010038;28;20524;-76
2023/02/10 06:13:49;;;;;;;44.17;20.38;;;;;;;-3.68;65.23;98593.91;4997856;28;20064;-77
2023/02/10 06:16:17;;;;;;;43.80;21.63;;;;;;;-3.70;65.95;98594.84;5001840;28;20053;-77
2023/02/10 06:18:47;;;;;;;39.03;20.77;;;;;;;-3.66;67.02;98602.34;5016342;28;20045;-77
2023/02/10 06:21:15;;;;;;;46.72;22.23;;;;;;;-3.56;68.16;98608.88;5010177;28;20422;-76
2023/02/10 06:23:42;;;;;;;44.30;24.60;;;;;;;-3.42;68.85;98610.19;5017449;28;20042;-77
2023/02/10 06:26:10;;;;;;;55.63;25.27;;;;;;;-3.34;67.98;98601.41;5019504;28;20045;-78
2023/02/10 06:28:39;;;;;;;54.75;26.77;;;;;;;-3.35;66.14;98607.38;5036940;28;20048;-78
2023/02/10 06:31:08;;;;;;;53.47;25.60;;;;;;;-3.40;65.52;98614.34;5027780;28;20118;-77
2023/02/10 06:33:36;;;;;;;53.45;26.55;;;;;;;-3.49;65.55;98609.53;5019318;28;20050;-77
2023/02/10 06:36:05;;;;;;;50.78;24.75;;;;;;;-3.58;65.50;98605.53;5009796;28;20052;-77
2023/02/10 06:38:34;;;;;;;53.33;25.08;;;;;;;-3.66;65.48;98615.09;5006990;28;20056;-77
2023/02/10 06:41:02;;;;;;;53.13;24.40;;;;;;;-3.72;65.29;98620.38;5016622;28;20050;-77
2023/02/10 06:43:30;;;;;;;48.80;23.33;;;;;;;-3.74;65.61;98624.69;5016734;28;20042;-77
2023/02/10 06:45:59;;;;;;;48.95;25.45;;;;;;;-3.77;66.20;98625.59;5013715;28;20056;-78
2023/02/10 06:48:27;;;;;;;45.80;23.30;;;;;;;-3.73;66.14;98629.75;5018371;28;20062;-78
2023/02/10 06:50:54;;;;;;;45.28;22.38;;;;;;;-3.67;66.62;98636.41;5004001;28;20100;-76
2023/02/10 06:53:22;;;;;;;46.92;24.77;;;;;;;-3.57;67.34;98642.06;5008495;28;20050;-76
2023/02/10 06:55:51;;;;;;;42.08;22.50;;;;;;;-3.51;66.82;98647.00;4999814;28;20408;-78
2023/02/10 06:58:18;;;;;;;44.05;22.80;;;;;;;-3.48;66.61;98656.28;5018772;28;20113;-77
2023/02/10 07:00:46;;;;;;;48.05;22.92;;;;;;;-3.43;66.79;98649.31;5019664;28;20109;-78
2023/02/10 07:03:15;;;;;;;44.83;22.08;;;;;;;-3.41;65.97;98653.50;5028281;28;20088;-79
2023/02/10 07:05:43;;;;;;;43.13;23.85;;;;;;;-3.39;66.31;98656.84;5027889;28;20073;-77
2023/02/10 07:08:11;;;;;;;46.10;23.45;;;;;;;-3.41;65.82;98653.50;5016436;28;20049;-77
2023/02/10 07:10:39;;;;;;;43.70;22.58;;;;;;;-3.42;65.75;98649.28;5013998;28;20053;-77
2023/02/10 07:13:07;;;;;;;44.70;23.35;;;;;;;-3.36;67.55;98650.81;5022341;28;20069;-78
2023/02/10 07:15:35;;;;;;;47.60;24.92;;;;;;;-3.25;68.75;98660.72;5022768;28;20074;-77
2023/02/10 07:18:02;;;;;;;43.90;23.50;;;;;;;-3.09;69.73;98668.75;5012488;28;20050;-77
2023/02/10 07:20:31;;;;;;;48.33;23.88;;;;;;;-3.03;69.59;98666.84;5003373;28;20046;-77
2023/02/10 07:22:59;;;;;;;38.78;22.23;;;;;;;-2.93;69.63;98660.59;5029683;28;20054;-78
2023/02/10 07:25:26;;;;;;;43.90;24.15;;;;;;;-2.80;68.45;98661.06;5015075;28;20531;-78
2023/02/10 07:27:54;;;;;;;46.85;24.27;;;;;;;-2.77;67.09;98670.34;5010029;28;20073;-77
2023/02/10 07:30:22;;;;;;;42.85;23.67;;;;;;;-2.75;66.98;98658.34;5012342;28;20099;-77
2023/02/10 07:32:49;;;;;;;46.78;24.65;;;;;;;-2.70;66.44;98671.81;5015426;28;20060;-78
2023/02/10 07:35:17;;;;;;;42.13;24.20;;;;;;;-2.68;66.31;98675.16;5010031;28;20057;-78
2023/02/10 07:37:46;;;;;;;47.30;24.45;;;;;;;-2.43;65.86;98679.47;5007556;28;20397;-77
2023/02/10 07:40:14;;;;;;;42.58;24.70;;;;;;;-2.04;65.37;98681.59;5015112;28;20054;-77
2023/02/10 07:42:42;;;;;;;45.83;24.95;;;;;;;-1.75;64.75;98673.78;5005164;28;20432;-78
2023/02/10 07:45:09;;;;;;;43.45;24.15;;;;;;;-1.21;64.66;98678.66;5016096;28;20145;-78
2023/02/10 07:47:37;;;;;;;44.70;24.58;;;;;;;-0.85;62.71;98684.94;5014682;28;20092;-78
2023/02/10 07:50:06;;;;;;;45.08;23.15;;;;;;;-0.84;62.30;98689.16;5014401;28;20060;-77
2023/02/10 07:52:33;;;;;;;43.05;23.33;;;;;;;-0.99;62.76;98689.75;5010994;28;20046;-77
2023/02/10 07:55:03;;;;;;;43.60;23.70;;;;;;;-1.20;63.33;98688.84;5014223;28;20435;-78
2023/02/10 07:57:31;;;;;;;49.17;26.35;;;;;;;-1.37;62.98;98689.47;5001360;28;20050;-78
2023/02/10 07:59:59;;;;;;;55.38;27.83;;;;;;;-1.54;62.65;98684.13;5010794;28;20054;-78
2023/02/10 08:02:26;;;;;;;58.65;28.85;;;;;;;-1.67;62.62;98689.66;5005241;28;20401;-77
2023/02/10 08:04:55;;;;;;;51.30;26.38;;;;;;;-1.72;62.98;98681.31;4996263;28;20050;-78
2023/02/10 08:07:23;;;;;;;51.10;27.23;;;;;;;-1.76;62.76;98684.88;5014139;28;20045;-78
2023/02/10 08:09:51;;;;;;;46.10;25.58;;;;;;;-1.79;63.74;98681.56;5038667;22;20038;-76
2023/02/10 08:12:20;;;;;;;45.00;25.42;;;;;;;-1.77;64.06;98680.66;5022764;28;20053;-76
2023/02/10 08:14:47;;;;;;;42.92;24.50;;;;;;;-1.66;64.44;98682.84;5020647;28;20057;-75
2023/02/10 08:17:15;;;;;;;45.40;26.10;;;;;;;-1.53;64.97;98675.53;5031190;28;20046;-76
2023/02/10 08:19:42;;;;;;;44.85;24.90;;;;;;;-1.42;64.17;98675.16;5032191;28;20152;-76
2023/02/10 08:22:10;;;;;;;41.58;23.88;;;;;;;-1.35;63.47;98664.66;5030638;28;20054;-76
2023/02/10 08:24:38;;;;;;;42.65;24.23;;;;;;;-1.29;64.00;98672.09;5014351;28;20515;-76
2023/02/10 08:27:06;;;;;;;45.85;25.67;;;;;;;-1.20;63.49;98670.94;5017110;28;20053;-75
2023/02/10 08:29:35;;;;;;;44.08;24.05;;;;;;;-1.05;64.39;98674.63;5033067;28;20053;-75
2023/02/10 08:32:03;;;;;;;38.53;22.60;;;;;;;-0.84;64.10;98673.78;5020820;28;20058;-76
2023/02/10 08:34:31;;;;;;;41.63;22.67;;;;;;;-0.71;62.99;98670.75;5014297;28;20054;-76
2023/02/10 08:36:59;;;;;;;40.83;22.40;;;;;;;-0.57;62.75;98676.16;5014781;28;20136;-76
2023/02/10 08:39:28;;;;;;;46.22;25.15;;;;;;;-0.43;62.36;98684.16;5015070;28;20053;-76
2023/02/10 08:41:56;;;;;;;46.17;23.08;;;;;;;-0.30;62.19;98688.78;5033062;28;20132;-76
2023/02/10 08:44:23;;;;;;;41.72;23.75;;;;;;;-0.21;62.16;98688.41;5017113;28;20045;-76
2023/02/10 08:46:53;;;;;;;43.83;23.90;;;;;;;-0.05;63.37;98686.03;5015747;28;20082;-75
2023/02/10 08:49:23;;;;;;;44.50;23.63;;;;;;;0.12;62.99;98691.28;5017337;28;20053;-76
2023/02/10 08:51:51;;;;;;;40.70;23.92;;;;;;;0.30;63.63;98694.81;5033953;28;20054;-76
2023/02/10 08:54:18;;;;;;;42.08;24.90;;;;;;;0.54;64.16;98697.22;5020019;28;20146;-76
2023/02/10 08:56:46;;;;;;;41.85;25.65;;;;;;;0.74;63.37;98702.28;5015098;28;20076;-76
2023/02/10 08:59:15;;;;;;;41.47;23.73;;;;;;;0.96;63.55;98693.63;5034036;28;20527;-77
2023/02/10 09:01:42;;;;;;;42.05;24.65;;;;;;;1.16;63.55;98695.25;5018535;28;20144;-76
2023/02/10 09:04:11;;;;;;;48.42;26.63;;;;;;;1.36;63.08;98686.66;5022414;28;20141;-77
2023/02/10 09:06:43;;;;;;;44.20;24.63;;;;;;;1.55;62.98;98687.44;5027387;28;20134;-77
2023/02/10 09:09:11;;;;;;;51.40;26.35;;;;;;;1.76;63.07;98689.88;5020598;28;20077;-77
2023/02/10 09:11:39;;;;;;;50.55;26.23;;;;;;;1.91;60.70;98689.09;5013252;28;20046;-77
2023/02/10 09:14:07;;;;;;;50.20;26.65;;;;;;;2.04;59.55;98689.34;5022745;28;20128;-78
2023/02/10 09:16:36;;;;;;;60.92;29.98;;;;;;;2.20;59.07;98684.22;5020143;28;20046;-77
2023/02/10 09:19:04;;;;;;;50.50;28.00;;;;;;;2.33;58.61;98685.28;5018174;28;20042;-77
2023/02/10 09:21:33;;;;;;;48.67;28.98;;;;;;;2.47;59.90;98685.41;5033314;28;20046;-77
2023/02/10 09:24:13;;;;;;;57.70;29.80;;;;;;;2.72;59.31;98685.88;5019283;28;20060;-77
2023/02/10 09:26:40;;;;;;;57.53;30.45;;;;;;;2.96;59.33;98683.72;5015853;28;20408;-78
2023/02/10 09:29:08;;;;;;;57.88;30.88;;;;;;;3.19;60.02;98683.31;5023765;28;20050;-77
2023/02/10 09:31:36;;;;;;;60.78;30.73;;;;;;;3.43;58.91;98688.00;5013735;28;20522;-76
2023/02/10 09:34:04;;;;;;;62.70;32.50;;;;;;;3.60;57.66;98679.31;4993277;28;20046;-76
2023/02/10 09:36:34;;;;;;;67.13;31.92;;;;;;;3.80;55.93;98686.75;5011462;28;20054;-77
2023/02/10 09:39:01;;;;;;;52.60;28.52;;;;;;;4.04;55.28;98691.44;5002361;28;20091;-77
2023/02/10 09:41:41;;;;;;;47.60;26.73;;;;;;;4.25;53.13;98690.19;5022450;28;20148;-77
2023/02/10 09:44:16;;;;;;;43.50;25.95;;;;;;;4.46;53.30;98689.81;5013547;28;20423;-78
2023/02/10 09:46:58;;;;;;;47.90;26.90;;;;;;;4.58;52.17;98698.59;5021929;28;20488;-78
2023/02/10 09:49:57;;;;;;;48.22;26.95;;;;;;;4.71;52.56;98694.34;5023732;28;20145;-78
2023/02/10 09:52:35;;;;;;;39.40;23.77;;;;;;;4.93;51.67;98697.28;5009901;28;20050;-78
2023/02/10 09:55:08;;;;;;;39.00;24.05;;;;;;;5.09;53.29;98688.56;5024939;28;20092;-77
2023/02/10 09:57:39;;;;;;;42.58;24.83;;;;;;;5.31;52.01;98694.06;5011847;28;20042;-77
2023/02/10 10:00:22;;;;;;;37.95;24.35;;;;;;;5.53;52.84;98690.09;5021865;28;20826;-77
2023/02/10 10:02:52;;;;;;;40.42;25.50;;;;;;;5.76;51.13;98681.66;5028582;28;20415;-78
2023/02/10 10:05:29;;;;;;;42.92;25.50;;;;;;;5.95;52.35;98694.28;5007683;28;20412;-77
2023/02/10 10:08:00;;;;;;;41.38;24.35;;;;;;;6.12;51.50;98694.91;5021782;28;20515;-78
2023/02/10 10:10:33;;;;;;;41.40;25.10;;;;;;;6.25;51.44;98700.13;5018668;28;20077;-78
2023/02/10 10:13:00;;;;;;;40.53;23.80;;;;;;;6.42;50.88;98699.81;5030914;28;20060;-78
2023/02/10 10:15:39;;;;;;;40.90;24.50;;;;;;;6.62;48.24;98698.44;5030212;28;20049;-78
2023/02/10 10:18:14;;;;;;;38.90;24.25;;;;;;;6.81;51.29;98704.03;5016684;28;20332;-78
2023/02/10 10:20:51;;;;;;;38.10;23.58;;;;;;;6.99;51.23;98703.69;5013791;28;20042;-79
2023/02/10 10:23:45;;;;;;;37.35;22.90;;;;;;;7.14;49.33;98704.38;5020353;28;20050;-77
2023/02/10 10:26:30;;;;;;;33.80;22.38;;;;;;;7.24;46.71;98700.22;5030234;28;20057;-78
2023/02/10 10:29:21;;;;;;;35.28;23.85;;;;;;;7.36;47.84;98704.50;5013258;28;20056;-77
2023/02/10 10:31:55;;;;;;;39.58;23.65;;;;;;;7.42;46.30;98691.09;5013026;28;20080;-77
2023/02/10 10:34:26;;;;;;;36.47;23.98;;;;;;;7.42;47.05;98696.28;5013875;28;20133;-78
2023/02/10 10:36:57;;;;;;;36.00;22.45;;;;;;;7.51;46.58;98688.78;5030267;28;20522;-77
2023/02/10 10:39:33;;;;;;;34.58;23.13;;;;;;;7.70;46.55;98681.31;5017971;28;20049;-77
2023/02/10 10:42:04;;;;;;;36.30;24.38;;;;;;;7.87;45.93;98676.63;5015821;28;20180;-78
2023/02/10 10:44:35;;;;;;;37.88;23.08;;;;;;;7.94;45.93;98675.25;5032892;28;20055;-78
2023/02/10 10:47:08;;;;;;;35.20;22.98;;;;;;;8.04;43.97;98681.41;5032616;28;20049;-77
2023/02/10 10:49:36;;;;;;;34.10;21.35;;;;;;;8.08;44.19;98671.63;5018035;28;20046;-77
2023/02/10 10:52:24;;;;;;;31.40;20.63;;;;;;;8.16;43.59;98672.69;5015531;28;20060;-77
2023/02/10 10:54:53;;;;;;;33.13;21.63;;;;;;;8.35;44.65;98672.16;5016615;28;20053;-77
2023/02/10 10:57:21;;;;;;;32.30;22.17;;;;;;;8.47;43.80;98675.59;5016117;28;20060;-78
2023/02/10 10:59:55;;;;;;;32.55;21.10;;;;;;;8.60;41.97;98673.72;5014342;28;20042;-77
2023/02/10 11:02:24;;;;;;;31.75;20.38;;;;;;;8.78;43.07;98673.25;5025541;28;20414;-77
2023/02/10 11:05:03;;;;;;;28.45;19.50;;;;;;;8.96;43.97;98669.19;5035959;28;20085;-80
2023/02/10 11:07:33;;;;;;;30.55;21.20;;;;;;;9.18;44.24;98675.31;5023376;28;20133;-77
2023/02/10 11:10:04;;;;;;;32.10;21.13;;;;;;;9.36;41.89;98655.63;5009777;28;20053;-78
2023/02/10 11:12:34;;;;;;;33.72;21.52;;;;;;;9.53;42.53;98656.03;5017123;28;20050;-78
2023/02/10 11:15:06;;;;;;;30.35;20.48;;;;;;;9.70;44.04;98661.50;5014805;28;20074;-78
2023/02/10 11:17:37;;;;;;;29.58;20.23;;;;;;;9.87;41.38;98661.91;5015760;28;20046;-77
2023/02/10 11:20:24;;;;;;;33.10;21.63;;;;;;;9.90;40.78;98652.06;5032704;28;20053;-77
2023/02/10 11:22:57;;;;;;;35.08;21.77;;;;;;;10.03;39.90;98657.06;5028079;28;20510;-77
2023/02/10 11:25:31;;;;;;;33.70;21.58;;;;;;;10.13;41.73;98662.38;5014604;28;20053;-76
2023/02/10 11:28:00;;;;;;;30.92;20.85;;;;;;;10.24;42.91;98654.47;5014666;28;20132;-76
2023/02/10 11:30:30;;;;;;;32.55;21.35;;;;;;;10.39;41.77;98651.56;5018174;28;20053;-77
2023/02/10 11:32:59;;;;;;;28.50;20.67;;;;;;;10.50;41.15;98654.91;5032255;28;20054;-78
2023/02/10 11:35:27;;;;;;;27.92;20.00;;;;;;;10.54;42.02;98655.47;5032931;28;20069;-75